Time;durP1;ratioP1;P1;durP2;ratioP2;P2;SDS_P1;SDS_P2;PMS_P1;PMS_P2;Temp;Humidity;BMP_temperature;BMP_pressure;BME280_temperature;BME280_humidity;BME280_pressure;Samples;Min_cycle;Max_cycle;Signal;HPM_P1;HPM_P2
2021/10/22 00:00:26;;;;;;;3.97;1.73;;;10.70;99.90;;;;;;5028920;28;20458;-79
2021/10/22 00:02:52;;;;;;;4.80;2.03;;;10.70;99.90;;;;;;5029500;28;20501;-79
2021/10/22 00:05:21;;;;;;;3.30;1.30;;;10.70;99.90;;;;;;5030213;28;20469;-78
2021/10/22 00:07:48;;;;;;;4.10;2.10;;;10.60;99.90;;;;;;5020691;28;20434;-79
2021/10/22 00:10:15;;;;;;;4.33;2.00;;;10.50;99.90;;;;;;5018358;28;20449;-79
2021/10/22 00:12:43;;;;;;;3.73;1.60;;;10.50;99.90;;;;;;5017427;28;20519;-79
2021/10/22 00:15:11;;;;;;;6.73;1.90;;;10.60;99.90;;;;;;5018366;28;20475;-79
2021/10/22 00:17:38;;;;;;;4.10;2.00;;;10.50;99.90;;;;;;5018036;28;20447;-79
2021/10/22 00:20:07;;;;;;;3.60;1.70;;;10.40;99.90;;;;;;5018381;28;20462;-79
2021/10/22 00:22:36;;;;;;;3.00;1.60;;;10.40;99.90;;;;;;5019330;28;20437;-79
2021/10/22 00:25:03;;;;;;;5.57;2.23;;;10.30;99.90;;;;;;5019528;28;20842;-78
2021/10/22 00:27:30;;;;;;;5.20;2.30;;;10.30;99.90;;;;;;5028034;28;20556;-78
2021/10/22 00:29:58;;;;;;;5.07;2.17;;;10.20;99.90;;;;;;5020047;28;20424;-78
2021/10/22 00:32:25;;;;;;;5.70;2.67;;;10.10;99.90;;;;;;5017978;28;20447;-78
2021/10/22 00:34:52;;;;;;;5.30;1.90;;;10.00;99.90;;;;;;5018312;28;20481;-78
2021/10/22 00:37:21;;;;;;;5.00;2.53;;;10.00;99.90;;;;;;5018251;28;20881;-78
2021/10/22 00:39:49;;;;;;;3.93;2.10;;;10.10;99.90;;;;;;5017427;28;20497;-78
2021/10/22 00:42:17;;;;;;;5.00;2.53;;;10.00;99.90;;;;;;5024011;28;20757;-79
2021/10/22 00:44:44;;;;;;;3.67;2.13;;;10.00;99.90;;;;;;5018369;28;20439;-79
2021/10/22 00:47:11;;;;;;;4.40;2.13;;;9.90;99.90;;;;;;5020246;28;20429;-78
2021/10/22 00:49:38;;;;;;;6.53;2.30;;;9.90;99.90;;;;;;5018275;28;20476;-80
2021/10/22 00:52:06;;;;;;;4.13;1.87;;;9.90;99.90;;;;;;5016101;28;20976;-79
2021/10/22 00:54:33;;;;;;;4.63;2.33;;;10.00;99.90;;;;;;5026976;28;20435;-78
2021/10/22 00:57:01;;;;;;;4.83;2.13;;;9.90;99.90;;;;;;5030179;28;20464;-78
2021/10/22 00:59:28;;;;;;;4.70;2.13;;;9.90;99.90;;;;;;5017855;28;20999;-79
2021/10/22 01:01:55;;;;;;;6.23;2.43;;;9.90;99.90;;;;;;5017521;28;20453;-78
2021/10/22 01:04:22;;;;;;;5.47;2.37;;;9.90;99.90;;;;;;5018298;28;20424;-80
2021/10/22 01:06:49;;;;;;;4.47;2.03;;;9.90;99.90;;;;;;5033154;28;20554;-77
2021/10/22 01:09:17;;;;;;;5.33;1.90;;;10.00;99.90;;;;;;5029031;28;20436;-77
2021/10/22 01:11:44;;;;;;;4.83;1.67;;;10.00;99.90;;;;;;5031042;28;20848;-78
2021/10/22 01:14:12;;;;;;;3.90;1.63;;;10.00;99.90;;;;;;5022821;28;20424;-78
2021/10/22 01:16:40;;;;;;;9.13;2.00;;;10.00;99.90;;;;;;5032130;28;21028;-78
2021/10/22 01:19:12;;;;;;;3.70;1.60;;;10.00;99.90;;;;;;5028189;28;20456;-78
2021/10/22 01:21:41;;;;;;;4.47;1.67;;;10.00;99.90;;;;;;5019471;28;20412;-78
2021/10/22 01:24:08;;;;;;;6.10;1.60;;;10.00;99.90;;;;;;5017212;28;20777;-78
2021/10/22 01:26:35;;;;;;;5.97;2.10;;;10.20;99.90;;;;;;5016287;28;20519;-78
2021/10/22 01:29:02;;;;;;;7.77;2.07;;;10.20;99.90;;;;;;5016792;28;20512;-78
2021/10/22 01:31:29;;;;;;;6.70;1.70;;;10.30;99.90;;;;;;5016461;28;20546;-78
2021/10/22 01:33:56;;;;;;;6.00;1.50;;;10.30;99.90;;;;;;5016252;28;20560;-78
2021/10/22 01:36:24;;;;;;;6.47;1.70;;;10.30;99.90;;;;;;5016654;28;20497;-79
2021/10/22 01:38:52;;;;;;;6.60;1.90;;;10.10;99.90;;;;;;5017515;28;20433;-79
2021/10/22 01:41:20;;;;;;;8.47;1.57;;;10.30;99.90;;;;;;5017108;28;20515;-80
2021/10/22 01:43:47;;;;;;;7.23;2.10;;;10.10;99.90;;;;;;5017080;28;20520;-80
2021/10/22 01:46:14;;;;;;;6.27;1.57;;;10.10;99.90;;;;;;5017600;28;20474;-80
2021/10/22 01:48:41;;;;;;;4.83;1.80;;;10.00;99.90;;;;;;5017523;28;20442;-80
2021/10/22 01:51:09;;;;;;;6.77;2.37;;;10.00;99.90;;;;;;5017603;28;20491;-80
2021/10/22 01:53:35;;;;;;;6.90;1.43;;;10.10;99.90;;;;;;5017108;28;20454;-80
2021/10/22 01:56:04;;;;;;;3.63;1.30;;;10.10;99.90;;;;;;5017623;28;20490;-80
2021/10/22 01:58:30;;;;;;;24.70;2.57;;;10.00;99.90;;;;;;5016500;28;20455;-79
2021/10/22 02:00:58;;;;;;;5.50;2.03;;;10.10;99.90;;;;;;5017006;28;20457;-80
2021/10/22 02:03:25;;;;;;;5.90;1.60;;;10.40;99.90;;;;;;5021358;28;20424;-79
2021/10/22 02:05:52;;;;;;;3.67;1.60;;;10.20;99.90;;;;;;5028529;28;20475;-79
2021/10/22 02:08:19;;;;;;;4.20;1.87;;;10.20;99.90;;;;;;5025836;28;20436;-79
2021/10/22 02:10:45;;;;;;;4.80;1.87;;;10.10;99.90;;;;;;5019905;28;20488;-80
2021/10/22 02:13:14;;;;;;;5.13;1.60;;;10.10;99.90;;;;;;5025339;28;20488;-79
2021/10/22 02:15:40;;;;;;;8.10;1.93;;;10.00;99.90;;;;;;5017312;28;20497;-80
2021/10/22 02:18:07;;;;;;;4.53;1.77;;;9.90;99.90;;;;;;5018714;28;20511;-79
2021/10/22 02:20:38;;;;;;;9.37;2.30;;;9.90;99.90;;;;;;5022675;28;20424;-79
2021/10/22 02:23:05;;;;;;;6.60;2.17;;;9.80;99.90;;;;;;5026953;28;20412;-79
2021/10/22 02:25:31;;;;;;;7.17;1.67;;;9.80;99.90;;;;;;5016916;28;20476;-79
2021/10/22 02:27:58;;;;;;;5.80;1.73;;;9.80;99.90;;;;;;5030052;28;20880;-78
2021/10/22 02:30:27;;;;;;;9.00;2.10;;;9.70;99.90;;;;;;5020323;28;20885;-79
2021/10/22 02:32:54;;;;;;;6.33;1.87;;;9.70;99.90;;;;;;5016616;28;20552;-79
2021/10/22 02:35:21;;;;;;;7.73;1.90;;;9.70;99.90;;;;;;5016311;28;20475;-80
2021/10/22 02:37:48;;;;;;;8.60;2.57;;;9.70;99.90;;;;;;5016115;28;20435;-79
2021/10/22 02:40:16;;;;;;;8.03;1.80;;;9.50;99.90;;;;;;5016480;28;20428;-79
2021/10/22 02:42:43;;;;;;;4.67;1.77;;;9.50;99.90;;;;;;5016607;28;20549;-79
2021/10/22 02:45:10;;;;;;;5.70;1.80;;;9.50;99.90;;;;;;5017150;28;20473;-79
2021/10/22 02:47:38;;;;;;;4.90;2.00;;;9.40;99.90;;;;;;5016341;28;20616;-79
2021/10/22 02:50:06;;;;;;;4.07;1.57;;;9.60;99.90;;;;;;5016454;28;20541;-79
2021/10/22 02:52:33;;;;;;;7.10;1.93;;;9.50;99.90;;;;;;5016634;28;20909;-79
2021/10/22 02:55:00;;;;;;;5.93;1.83;;;9.50;99.90;;;;;;5018757;28;20499;-79
2021/10/22 02:57:26;;;;;;;6.40;2.00;;;9.40;99.90;;;;;;5016124;28;20464;-79
2021/10/22 02:59:53;;;;;;;8.27;2.40;;;9.40;99.90;;;;;;5015911;28;20794;-79
2021/10/22 03:02:20;;;;;;;9.57;1.93;;;9.50;99.90;;;;;;5021837;28;20484;-78
2021/10/22 03:04:48;;;;;;;4.57;2.47;;;9.70;99.90;;;;;;5021717;28;20456;-79
2021/10/22 03:07:15;;;;;;;4.80;2.00;;;9.70;99.90;;;;;;5015856;28;20511;-79
2021/10/22 03:09:42;;;;;;;3.33;1.70;;;9.60;99.90;;;;;;5015918;28;20547;-79
2021/10/22 03:12:09;;;;;;;10.50;2.10;;;9.60;99.90;;;;;;5016304;28;20484;-79
2021/10/22 03:14:35;;;;;;;3.20;1.60;;;9.60;99.90;;;;;;5016484;28;20885;-79
2021/10/22 03:17:02;;;;;;;5.70;1.90;;;9.50;99.90;;;;;;5021319;28;20523;-79
2021/10/22 03:19:30;;;;;;;6.80;2.07;;;9.50;99.90;;;;;;5021213;28;20449;-79
2021/10/22 03:21:58;;;;;;;6.23;1.87;;;9.50;99.90;;;;;;5020626;28;20536;-79
2021/10/22 03:24:25;;;;;;;9.17;2.87;;;9.30;99.90;;;;;;5020232;28;20515;-79
2021/10/22 03:26:51;;;;;;;8.40;2.70;;;9.10;99.90;;;;;;5019811;28;20482;-79
2021/10/22 03:29:19;;;;;;;7.33;2.10;;;9.20;99.90;;;;;;5023946;28;20453;-78
2021/10/22 03:31:47;;;;;;;7.20;2.63;;;9.30;99.90;;;;;;5026083;28;20954;-79
2021/10/22 03:34:14;;;;;;;7.03;2.67;;;9.30;99.90;;;;;;5020064;28;20526;-79
2021/10/22 03:36:41;;;;;;;6.20;2.03;;;9.20;99.90;;;;;;5041320;23;20482;-78
2021/10/22 03:39:09;;;;;;;7.87;2.10;;;9.20;99.90;;;;;;5016693;28;20540;-77
2021/10/22 03:41:36;;;;;;;9.70;2.23;;;9.20;99.90;;;;;;5016754;28;20444;-77
2021/10/22 03:44:03;;;;;;;5.10;2.30;;;9.10;99.90;;;;;;5016623;28;20549;-78
2021/10/22 03:46:30;;;;;;;6.83;2.70;;;8.90;99.90;;;;;;5016654;28;20470;-77
2021/10/22 03:48:57;;;;;;;7.10;2.47;;;8.90;99.90;;;;;;5016739;28;20466;-77
2021/10/22 03:51:24;;;;;;;8.40;2.10;;;8.90;99.90;;;;;;5016384;28;20544;-77
2021/10/22 03:53:51;;;;;;;4.93;2.20;;;8.90;99.90;;;;;;5016272;28;20464;-77
2021/10/22 03:56:19;;;;;;;6.70;2.30;;;8.80;99.90;;;;;;5016634;28;20845;-76
2021/10/22 03:58:45;;;;;;;4.30;2.10;;;8.80;99.90;;;;;;5016468;28;20538;-77
2021/10/22 04:01:13;;;;;;;4.43;1.93;;;8.80;99.90;;;;;;5016855;28;20476;-77
2021/10/22 04:03:40;;;;;;;5.97;2.30;;;8.90;99.90;;;;;;5016337;28;20547;-77
2021/10/22 04:06:06;;;;;;;9.37;3.27;;;8.90;99.90;;;;;;5016771;28;20808;-77
2021/10/22 04:08:33;;;;;;;4.60;2.33;;;8.70;99.90;;;;;;5016723;28;20488;-78
2021/10/22 04:11:00;;;;;;;6.67;2.57;;;8.60;99.90;;;;;;5016889;28;20468;-77
2021/10/22 04:13:29;;;;;;;6.30;2.50;;;8.60;99.90;;;;;;5016211;28;20461;-77
2021/10/22 04:15:56;;;;;;;4.87;2.27;;;8.70;99.90;;;;;;5016259;28;20533;-77
2021/10/22 04:18:23;;;;;;;7.90;2.00;;;8.60;99.90;;;;;;5016959;28;20449;-77
2021/10/22 04:20:50;;;;;;;9.60;2.70;;;8.50;99.90;;;;;;5016094;28;20467;-77
2021/10/22 04:23:17;;;;;;;7.30;3.10;;;8.50;99.90;;;;;;5016186;28;20449;-76
2021/10/22 04:25:44;;;;;;;8.97;2.37;;;8.40;99.90;;;;;;5015770;28;20473;-77
2021/10/22 04:28:11;;;;;;;6.17;2.40;;;8.50;99.90;;;;;;5015614;28;20446;-77
2021/10/22 04:30:40;;;;;;;5.00;2.30;;;8.50;99.90;;;;;;5016282;28;20917;-77
2021/10/22 04:33:07;;;;;;;5.10;2.63;;;8.60;99.90;;;;;;5015821;28;20516;-77
2021/10/22 04:35:34;;;;;;;4.25;2.67;;;8.60;99.90;;;;;;5015679;28;20495;-76
2021/10/22 04:40:30;;;;;;;4.90;1.93;;;8.50;99.90;;;;;;5015871;28;20198;-77
2021/10/22 04:40:52;;;;;;;7.33;2.53;;;8.40;99.90;;;;;;5015324;28;20488;-77
2021/10/22 04:43:23;;;;;;;5.63;2.20;;;8.30;99.90;;;;;;5015726;28;20453;-77
2021/10/22 04:45:54;;;;;;;6.40;2.20;;;8.20;99.90;;;;;;5015841;28;20833;-77
2021/10/22 04:48:21;;;;;;;6.47;2.83;;;8.10;99.90;;;;;;5016374;28;20978;-76
2021/10/22 04:50:50;;;;;;;7.10;2.87;;;8.20;99.90;;;;;;5015688;28;20428;-77
2021/10/22 04:53:18;;;;;;;11.43;2.23;;;8.20;99.90;;;;;;5015523;28;20457;-77
2021/10/22 04:55:46;;;;;;;9.13;2.07;;;8.20;99.90;;;;;;5015517;28;20481;-77
2021/10/22 04:58:12;;;;;;;11.33;2.27;;;8.20;99.90;;;;;;5015643;28;20449;-78
2021/10/22 05:00:39;;;;;;;6.70;2.10;;;8.20;99.90;;;;;;5015641;28;20506;-77
2021/10/22 05:03:07;;;;;;;4.20;1.90;;;8.20;99.90;;;;;;5021127;28;20456;-77
2021/10/22 05:05:34;;;;;;;7.05;2.58;;;8.20;99.90;;;;;;5023934;28;20479;-77
2021/10/22 05:08:01;;;;;;;5.67;2.70;;;8.10;99.90;;;;;;5015118;28;20305;-77
2021/10/22 05:10:28;;;;;;;7.43;2.07;;;8.10;99.90;;;;;;5015080;28;20463;-77
2021/10/22 05:12:55;;;;;;;7.03;2.78;;;7.80;99.90;;;;;;5015796;28;20461;-76
2021/10/22 05:15:22;;;;;;;6.03;2.13;;;7.80;99.90;;;;;;5015612;28;20213;-78
2021/10/22 05:17:49;;;;;;;6.15;2.90;;;8.00;99.90;;;;;;5016211;28;20536;-77
2021/10/22 05:20:17;;;;;;;6.53;2.60;;;7.90;99.90;;;;;;5017449;28;20216;-78
2021/10/22 05:22:44;;;;;;;7.82;2.65;;;7.80;99.90;;;;;;5017745;28;20451;-78
2021/10/22 05:25:12;;;;;;;8.17;2.80;;;7.80;99.90;;;;;;5017717;28;20210;-77
2021/10/22 05:27:40;;;;;;;7.17;2.73;;;8.00;99.90;;;;;;5016814;28;20965;-77
2021/10/22 05:30:08;;;;;;;5.47;2.40;;;7.90;99.90;;;;;;5016393;28;20465;-77
2021/10/22 05:32:35;;;;;;;8.57;2.40;;;7.90;99.90;;;;;;5016530;28;20458;-78
2021/10/22 05:35:02;;;;;;;6.70;2.50;;;7.90;99.90;;;;;;5017133;28;20210;-78
2021/10/22 05:37:31;;;;;;;6.03;2.50;;;7.90;99.90;;;;;;5016115;28;20504;-78
2021/10/22 05:39:58;;;;;;;9.17;2.17;;;8.00;99.90;;;;;;5015731;28;20464;-77
2021/10/22 05:42:25;;;;;;;6.53;2.23;;;7.90;99.90;;;;;;5015814;28;20451;-78
2021/10/22 05:44:52;;;;;;;6.05;2.30;;;7.80;99.90;;;;;;5016947;28;20567;-78
2021/10/22 05:47:19;;;;;;;6.90;2.57;;;7.80;99.90;;;;;;5018066;28;20268;-77
2021/10/22 05:49:46;;;;;;;14.40;2.67;;;7.70;99.90;;;;;;5024664;28;20852;-78
2021/10/22 05:52:12;;;;;;;6.20;1.87;;;7.70;99.90;;;;;;5021695;28;20473;-77
2021/10/22 05:54:41;;;;;;;9.30;3.30;;;7.80;99.90;;;;;;5022814;28;21001;-78
2021/10/22 05:57:07;;;;;;;6.73;2.40;;;7.90;99.90;;;;;;5018457;28;20487;-77
2021/10/22 05:59:34;;;;;;;6.15;2.92;;;7.80;99.90;;;;;;5019992;28;20542;-77
2021/10/22 06:02:01;;;;;;;6.35;2.88;;;7.70;99.90;;;;;;5017338;28;20212;-78
2021/10/22 06:04:28;;;;;;;9.75;3.53;;;7.40;99.90;;;;;;5015635;28;20216;-78
2021/10/22 06:06:55;;;;;;;9.25;2.83;;;7.50;99.90;;;;;;5014383;28;20296;-77
2021/10/22 06:09:22;;;;;;;8.10;2.73;;;7.60;99.90;;;;;;5014329;28;20664;-77
2021/10/22 06:11:51;;;;;;;13.20;3.03;;;7.50;99.90;;;;;;5014100;28;20760;-77
2021/10/22 06:14:18;;;;;;;12.80;4.30;;;7.50;99.90;;;;;;5015855;28;20284;-77
2021/10/22 06:16:45;;;;;;;8.17;2.70;;;7.60;99.90;;;;;;5013622;28;20492;-77
2021/10/22 06:19:16;;;;;;;14.63;3.20;;;7.60;99.90;;;;;;5015487;28;20469;-78
2021/10/22 06:21:54;;;;;;;9.63;3.03;;;7.70;99.90;;;;;;5015767;28;20457;-78
2021/10/22 06:24:21;;;;;;;6.33;2.90;;;7.90;99.90;;;;;;5014766;28;20435;-78
2021/10/22 06:26:50;;;;;;;10.45;2.90;;;7.70;99.90;;;;;;5014338;28;20470;-77
2021/10/22 06:29:17;;;;;;;7.90;3.00;;;7.80;99.90;;;;;;5014629;28;20209;-78
2021/10/22 06:31:43;;;;;;;12.55;4.05;;;7.80;99.90;;;;;;5014091;28;20452;-77
2021/10/22 06:34:11;;;;;;;8.30;2.77;;;7.80;99.90;;;;;;5014616;28;20674;-78
2021/10/22 06:36:38;;;;;;;9.52;3.30;;;7.90;99.90;;;;;;5016688;28;21005;-78
2021/10/22 06:39:06;;;;;;;14.10;3.27;;;7.80;99.90;;;;;;5016102;28;20213;-78
2021/10/22 06:41:33;;;;;;;5.93;2.70;;;7.90;99.90;;;;;;5016290;28;20456;-78
2021/10/22 06:44:01;;;;;;;6.50;2.60;;;7.70;99.90;;;;;;5015391;28;20513;-78
2021/10/22 06:46:28;;;;;;;7.50;2.90;;;7.70;99.90;;;;;;5016032;28;20733;-77
2021/10/22 06:48:55;;;;;;;8.13;2.60;;;7.80;99.90;;;;;;5013994;28;20216;-77
2021/10/22 06:51:23;;;;;;;10.40;2.65;;;7.70;99.90;;;;;;5013614;28;20449;-77
2021/10/22 06:53:50;;;;;;;8.73;3.17;;;7.80;99.90;;;;;;5013383;28;20564;-77
2021/10/22 06:56:18;;;;;;;8.63;3.60;;;7.80;99.90;;;;;;5014311;28;20487;-77
2021/10/22 06:58:45;;;;;;;12.70;3.67;;;7.60;99.90;;;;;;5015208;28;20283;-78
2021/10/22 07:01:13;;;;;;;9.10;2.93;;;7.60;99.90;;;;;;5014886;28;20457;-78
2021/10/22 07:03:42;;;;;;;7.70;3.00;;;7.80;99.90;;;;;;5016410;28;20457;-78
2021/10/22 07:08:55;;;;;;;7.40;2.77;;;7.90;99.90;;;;;;5016829;28;20837;-78
2021/10/22 07:11:24;;;;;;;10.35;2.53;;;7.50;99.90;;;;;;5015317;28;20493;-77
2021/10/22 07:13:53;;;;;;;9.53;2.97;;;7.90;99.90;;;;;;5015687;28;20221;-78
2021/10/22 07:16:22;;;;;;;9.30;2.60;;;8.00;99.90;;;;;;5016194;28;20439;-78
2021/10/22 07:18:50;;;;;;;7.90;2.33;;;8.00;99.90;;;;;;5013088;28;20466;-77
2021/10/22 07:21:21;;;;;;;13.63;3.10;;;8.10;99.90;;;;;;5013887;28;20456;-77
2021/10/22 07:23:49;;;;;;;13.13;2.97;;;8.10;99.90;;;;;;5013114;28;20416;-77
2021/10/22 07:26:18;;;;;;;8.93;2.70;;;8.10;99.90;;;;;;5013429;28;20482;-77
2021/10/22 07:28:46;;;;;;;15.37;3.30;;;8.20;99.90;;;;;;5013659;28;20481;-77
2021/10/22 07:31:13;;;;;;;7.95;2.28;;;7.90;99.90;;;;;;5015208;28;20479;-77
2021/10/22 07:33:43;;;;;;;14.63;2.83;;;8.20;99.90;;;;;;5014048;28;20238;-77
2021/10/22 07:36:12;;;;;;;12.20;3.30;;;8.30;99.90;;;;;;5013135;28;20300;-78
2021/10/22 07:38:41;;;;;;;13.15;3.30;;;8.40;99.90;;;;;;5020006;28;20593;-78
2021/10/22 07:41:08;;;;;;;8.23;2.63;;;8.50;99.90;;;;;;5018213;28;20216;-78
2021/10/22 07:43:36;;;;;;;12.23;3.33;;;8.50;99.90;;;;;;5015170;28;20464;-78
2021/10/22 07:46:02;;;;;;;13.73;3.10;;;8.60;99.90;;;;;;5014160;28;21024;-78
2021/10/22 07:48:29;;;;;;;12.60;2.90;;;8.70;99.90;;;;;;5014837;28;20430;-78
2021/10/22 07:50:57;;;;;;;7.00;2.70;;;8.70;99.90;;;;;;5014710;28;21052;-78
2021/10/22 07:53:25;;;;;;;8.20;2.83;;;8.70;99.90;;;;;;5014484;28;20421;-78
2021/10/22 07:55:51;;;;;;;8.63;3.13;;;8.70;99.90;;;;;;5015200;28;20458;-78
2021/10/22 07:58:18;;;;;;;15.87;3.13;;;8.80;99.90;;;;;;5014758;28;20952;-77
2021/10/22 08:00:45;;;;;;;12.70;4.23;;;8.90;99.90;;;;;;5013781;28;20456;-77
2021/10/22 08:03:12;;;;;;;10.57;3.20;;;9.00;99.90;;;;;;5021061;28;20460;-76
2021/10/22 08:05:40;;;;;;;11.00;2.97;;;9.00;99.90;;;;;;5022457;28;20478;-77
2021/10/22 08:08:09;;;;;;;9.43;2.60;;;9.10;99.90;;;;;;5017787;28;20471;-78
2021/10/22 08:10:36;;;;;;;13.03;3.17;;;9.20;99.90;;;;;;5018984;28;20458;-78
2021/10/22 08:13:05;;;;;;;14.37;3.30;;;9.20;99.90;;;;;;5018314;28;20966;-78
2021/10/22 08:15:32;;;;;;;10.30;2.90;;;9.40;99.90;;;;;;5019034;28;20435;-77
2021/10/22 08:17:59;;;;;;;11.53;3.30;;;9.40;99.90;;;;;;5019351;28;20517;-77
2021/10/22 08:20:27;;;;;;;8.50;2.50;;;9.50;99.90;;;;;;5018635;28;20450;-77
2021/10/22 08:22:54;;;;;;;10.67;3.43;;;9.60;99.90;;;;;;5015769;28;20921;-77
2021/10/22 08:25:23;;;;;;;9.50;2.37;;;9.60;99.90;;;;;;5016595;28;20428;-77
2021/10/22 08:27:51;;;;;;;9.63;2.63;;;9.70;99.90;;;;;;5016369;28;20511;-77
2021/10/22 08:30:22;;;;;;;10.10;2.30;;;9.80;99.90;;;;;;5016564;28;20851;-77
2021/10/22 08:32:51;;;;;;;8.67;2.73;;;9.80;99.90;;;;;;5016358;28;20423;-78
2021/10/22 08:35:18;;;;;;;12.27;2.40;;;9.90;99.90;;;;;;5018660;28;20432;-77
2021/10/22 08:37:45;;;;;;;6.83;2.43;;;10.00;99.90;;;;;;5018595;28;20504;-78
2021/10/22 08:40:13;;;;;;;7.87;2.20;;;10.10;99.90;;;;;;5018347;28;20453;-79
2021/10/22 08:42:42;;;;;;;11.80;2.93;;;10.30;99.90;;;;;;5018288;28;20460;-78
2021/10/22 08:45:10;;;;;;;5.90;2.20;;;10.20;99.90;;;;;;5018705;28;20497;-78
2021/10/22 08:47:37;;;;;;;14.30;3.87;;;10.20;99.90;;;;;;5017924;28;20559;-78
2021/10/22 08:50:07;;;;;;;12.73;2.30;;;10.30;99.90;;;;;;5016133;28;20435;-77
2021/10/22 08:52:34;;;;;;;14.63;2.57;;;10.30;99.90;;;;;;5026962;28;20517;-77
2021/10/22 08:55:03;;;;;;;9.37;2.60;;;10.40;99.90;;;;;;5017213;28;20428;-78
2021/10/22 08:57:30;;;;;;;8.10;2.50;;;10.30;99.90;;;;;;5018120;28;20478;-78
2021/10/22 09:00:00;;;;;;;8.17;2.80;;;10.40;99.90;;;;;;5018040;28;20462;-77
2021/10/22 09:02:29;;;;;;;6.50;1.90;;;10.40;99.90;;;;;;5017201;28;20489;-77
2021/10/22 09:04:59;;;;;;;8.77;2.37;;;10.60;99.90;;;;;;5015680;28;20536;-77
2021/10/22 09:07:40;;;;;;;8.80;2.40;;;10.70;99.90;;;;;;5028582;28;20477;-78
2021/10/22 09:10:09;;;;;;;16.87;4.70;;;10.50;99.90;;;;;;5025766;28;20508;-77
2021/10/22 09:12:48;;;;;;;8.70;3.00;;;10.50;99.90;;;;;;5017658;28;20469;-78
2021/10/22 09:15:20;;;;;;;9.33;2.57;;;10.50;99.90;;;;;;5018888;28;20808;-78
2021/10/22 09:17:48;;;;;;;7.63;2.20;;;10.60;99.90;;;;;;5018170;28;20552;-78
2021/10/22 09:20:15;;;;;;;6.53;2.40;;;10.60;99.90;;;;;;5018443;28;20457;-77
2021/10/22 09:22:49;;;;;;;10.07;2.20;;;10.70;99.90;;;;;;5016579;28;20460;-77
2021/10/22 09:25:19;;;;;;;5.53;1.60;;;10.50;99.90;;;;;;5016215;28;20446;-76
2021/10/22 09:27:48;;;;;;;6.40;1.27;;;10.60;99.90;;;;;;5024729;28;20437;-78
2021/10/22 09:30:38;;;;;;;9.33;2.70;;;10.50;99.90;;;;;;5019117;28;20447;-78
2021/10/22 09:33:07;;;;;;;8.70;2.20;;;10.60;99.90;;;;;;5017808;28;20442;-78
2021/10/22 09:38:17;;;;;;;11.43;3.00;;;10.70;99.90;;;;;;4996412;28;20485;-80
2021/10/22 09:40:45;;;;;;;8.60;2.50;;;10.90;99.90;;;;;;4997233;28;20457;-78
2021/10/22 09:43:19;;;;;;;6.67;2.13;;;11.00;99.90;;;;;;4997695;28;20960;-78
2021/10/22 09:45:48;;;;;;;9.40;2.30;;;11.10;99.90;;;;;;4997326;28;20505;-78
2021/10/22 09:48:26;;;;;;;13.00;2.57;;;11.30;99.90;;;;;;4997135;28;20429;-78
2021/10/22 09:50:56;;;;;;;8.80;2.13;;;11.40;99.90;;;;;;4996892;28;20454;-80
2021/10/22 09:53:25;;;;;;;9.67;1.80;;;11.40;99.90;;;;;;4997448;28;20858;-78
2021/10/22 09:56:02;;;;;;;7.90;2.20;;;11.30;99.90;;;;;;4996910;28;20844;-80
2021/10/22 09:58:30;;;;;;;8.47;1.80;;;11.30;99.90;;;;;;5001407;28;20478;-78
2021/10/22 10:01:10;;;;;;;7.37;2.07;;;11.60;99.90;;;;;;5010543;28;20449;-78
2021/10/22 10:03:38;;;;;;;12.10;2.90;;;11.50;98.30;;;;;;4998065;28;20446;-78
2021/10/22 10:06:07;;;;;;;4.77;1.40;;;11.40;97.60;;;;;;4996894;28;20490;-78
2021/10/22 10:08:34;;;;;;;6.70;1.40;;;11.40;98.10;;;;;;4996721;28;20429;-78
2021/10/22 10:11:01;;;;;;;4.77;1.33;;;11.30;98.20;;;;;;4997479;28;20966;-79
2021/10/22 10:13:30;;;;;;;8.40;1.10;;;11.30;98.20;;;;;;4996988;28;20546;-79
2021/10/22 10:16:00;;;;;;;5.43;1.67;;;11.50;96.00;;;;;;4997017;28;20469;-79
2021/10/22 10:18:29;;;;;;;5.17;1.57;;;11.50;96.00;;;;;;4997432;28;20531;-79
2021/10/22 10:20:59;;;;;;;6.73;1.93;;;11.50;95.80;;;;;;4997587;28;20465;-79
2021/10/22 10:23:27;;;;;;;7.07;1.90;;;11.60;95.30;;;;;;4996809;28;20448;-79
2021/10/22 10:25:54;;;;;;;3.97;1.67;;;11.60;95.40;;;;;;4996857;28;20452;-79
2021/10/22 10:28:39;;;;;;;4.90;1.60;;;11.70;94.80;;;;;;4998096;28;20504;-79
2021/10/22 10:31:28;;;;;;;6.20;1.73;;;11.80;94.60;;;;;;4996744;28;20414;-78
2021/10/22 10:33:57;;;;;;;6.17;1.77;;;11.90;94.30;;;;;;4996788;28;20414;-79
2021/10/22 10:36:47;;;;;;;6.40;2.33;;;11.80;94.10;;;;;;4999655;28;20453;-81
2021/10/22 10:39:14;;;;;;;7.40;2.90;;;11.90;94.00;;;;;;4996159;28;20494;-79
2021/10/22 10:41:41;;;;;;;6.33;1.60;;;11.90;93.70;;;;;;4996347;28;20433;-79
2021/10/22 10:44:32;;;;;;;4.53;1.47;;;12.00;93.50;;;;;;4996491;28;20520;-79
2021/10/22 10:47:01;;;;;;;5.93;2.23;;;12.10;93.70;;;;;;4995597;28;20481;-78
2021/10/22 10:49:59;;;;;;;12.37;3.13;;;12.10;94.00;;;;;;5004196;28;20421;-79
2021/10/22 10:52:52;;;;;;;8.07;2.00;;;12.10;92.90;;;;;;4997492;28;20562;-79
2021/10/22 10:55:26;;;;;;;11.90;3.47;;;12.10;91.70;;;;;;4997774;28;20459;-79
2021/10/22 10:57:55;;;;;;;6.97;1.90;;;12.30;92.10;;;;;;4997527;28;20491;-79
2021/10/22 11:00:23;;;;;;;5.80;1.73;;;12.30;92.10;;;;;;4997055;28;20840;-79
2021/10/22 11:03:15;;;;;;;5.00;1.70;;;12.40;90.90;;;;;;4996448;28;20463;-79
2021/10/22 11:06:12;;;;;;;6.17;1.63;;;12.40;90.70;;;;;;5007462;28;20453;-78
2021/10/22 11:08:49;;;;;;;5.63;2.23;;;12.40;90.60;;;;;;5008172;28;20417;-77
2021/10/22 11:11:26;;;;;;;8.30;2.10;;;12.30;90.20;;;;;;5004678;28;20462;-79
2021/10/22 11:13:54;;;;;;;5.80;1.73;;;12.30;90.30;;;;;;5005955;28;20905;-78
2021/10/22 11:16:35;;;;;;;7.77;2.10;;;12.40;90.00;;;;;;5001077;28;20885;-79
2021/10/22 11:19:04;;;;;;;6.50;2.23;;;12.50;90.10;;;;;;4997994;28;20533;-79
2021/10/22 11:21:34;;;;;;;6.77;1.80;;;12.50;90.00;;;;;;4996124;28;20545;-79
2021/10/22 11:24:02;;;;;;;4.53;1.60;;;12.50;90.10;;;;;;4996531;28;20442;-79
2021/10/22 11:26:30;;;;;;;5.13;1.40;;;12.50;90.00;;;;;;4995864;28;20894;-79
2021/10/22 11:28:59;;;;;;;3.93;1.37;;;12.50;89.30;;;;;;4995598;28;20808;-78
2021/10/22 11:31:37;;;;;;;3.33;1.00;;;12.60;89.30;;;;;;4995751;28;20468;-78
2021/10/22 11:34:06;;;;;;;4.70;1.40;;;12.40;86.10;;;;;;4995951;28;20516;-79
2021/10/22 11:36:35;;;;;;;5.03;1.27;;;12.40;85.90;;;;;;4998818;28;20469;-80
2021/10/22 11:39:03;;;;;;;6.33;1.50;;;12.50;87.00;;;;;;5000869;28;20465;-80
2021/10/22 11:41:29;;;;;;;3.57;1.20;;;12.40;88.00;;;;;;4999990;28;20422;-79
2021/10/22 11:44:07;;;;;;;4.37;1.50;;;12.50;87.00;;;;;;5000390;28;20455;-80
2021/10/22 11:46:41;;;;;;;5.50;1.67;;;12.50;84.60;;;;;;4999285;28;20445;-79
2021/10/22 11:49:08;;;;;;;4.83;1.10;;;12.60;83.40;;;;;;5000680;28;20514;-79
2021/10/22 11:51:37;;;;;;;5.90;1.40;;;12.70;83.40;;;;;;5000073;28;20852;-79
2021/10/22 11:54:05;;;;;;;4.43;1.17;;;12.40;83.30;;;;;;5005079;28;20483;-79
2021/10/22 11:56:36;;;;;;;3.13;0.80;;;12.40;74.40;;;;;;5009653;28;20442;-79
2021/10/22 11:59:03;;;;;;;2.90;0.90;;;12.50;74.20;;;;;;5004711;28;20506;-80
2021/10/22 12:01:31;;;;;;;4.60;1.30;;;12.50;72.30;;;;;;5001139;28;20459;-80
2021/10/22 12:04:00;;;;;;;5.80;1.50;;;12.50;73.10;;;;;;5000884;28;20425;-80
2021/10/22 12:06:27;;;;;;;4.60;1.67;;;12.60;73.40;;;;;;5000777;28;20490;-80
2021/10/22 12:08:56;;;;;;;3.83;0.93;;;12.60;73.20;;;;;;5006693;28;20429;-78
2021/10/22 12:11:25;;;;;;;4.23;1.47;;;12.40;72.40;;;;;;5009435;28;20453;-78
2021/10/22 12:13:52;;;;;;;3.80;1.33;;;12.50;73.80;;;;;;5008312;28;20455;-78
2021/10/22 12:16:21;;;;;;;3.17;1.00;;;12.60;74.70;;;;;;5004872;28;20469;-78
2021/10/22 12:18:53;;;;;;;4.70;1.33;;;12.60;72.80;;;;;;5000284;28;20794;-79
2021/10/22 12:21:20;;;;;;;5.23;1.70;;;12.40;75.10;;;;;;5003617;28;20422;-78
2021/10/22 12:23:57;;;;;;;6.90;1.53;;;12.40;77.30;;;;;;5009114;28;20417;-80
2021/10/22 12:26:25;;;;;;;7.03;1.67;;;12.40;78.20;;;;;;5000297;28;20446;-79
2021/10/22 12:29:00;;;;;;;3.90;1.50;;;12.40;78.00;;;;;;5000349;28;20430;-78
2021/10/22 12:31:31;;;;;;;5.47;2.37;;;12.40;79.10;;;;;;5000229;28;21018;-79
2021/10/22 12:34:07;;;;;;;3.80;1.00;;;12.50;77.80;;;;;;4999976;28;20457;-79
2021/10/22 12:36:34;;;;;;;6.17;1.50;;;12.60;78.20;;;;;;4999505;28;20490;-80
2021/10/22 12:39:23;;;;;;;3.33;1.13;;;12.70;78.00;;;;;;5001496;28;20505;-79
2021/10/22 12:41:50;;;;;;;6.90;1.30;;;12.70;75.50;;;;;;5006077;28;20430;-78
2021/10/22 12:44:18;;;;;;;5.63;1.40;;;12.70;75.00;;;;;;5006693;28;20455;-79
2021/10/22 12:46:55;;;;;;;4.27;1.50;;;12.60;75.90;;;;;;4998540;28;20478;-78
2021/10/22 12:49:27;;;;;;;6.47;1.60;;;12.80;76.30;;;;;;4998671;28;20489;-78
2021/10/22 12:51:58;;;;;;;5.23;1.30;;;12.70;76.80;;;;;;4998481;28;20430;-79
2021/10/22 12:54:26;;;;;;;6.60;1.67;;;12.80;76.40;;;;;;4998505;28;20429;-79
2021/10/22 12:56:58;;;;;;;7.10;2.37;;;12.80;76.60;;;;;;4999119;28;20445;-78
2021/10/22 12:59:29;;;;;;;7.77;2.87;;;12.70;77.20;;;;;;4999863;28;20487;-79
2021/10/22 13:01:57;;;;;;;5.73;1.70;;;12.80;77.90;;;;;;4999815;28;20410;-79
2021/10/22 13:04:25;;;;;;;6.13;1.13;;;12.80;77.50;;;;;;4999806;28;20494;-79